Gambo, Canada
Current Conditions -  °F | °C
As of 6:00 PM on Thursday 20 Nov 2014 (Local Time) from CYQX Reporting Station
Few Clouds Few Clouds  
Wind Chill: 20°   Ceiling: Unl
Heat Index: 28°   Visibility: 20mi
Dew Point: 16°   Wind: 8mph
Humidity: 59%   Direction: 220°SW
Pressure: 30.02"   Gusts: NA
Location:  48.79°N, 54.21°W
Report Text: CYQX 202100Z 22007KT 20SM FEW120 FEW250 M02/M09 A3002 RMK AC1CI1 SC TR SLP175
Loading
Personal Weather Stations






























Interactive Weather Map New forecast layout! Learn more

10-Day Weather Forecast

Advertisements
Track Severe Weather on mobile